sensor_id;sensor_type;location;lat;lon;timestamp;P1;durP1;ratioP1;P2;durP2;ratioP2
19830;SDS011;10076;52.008;4.708;2024-01-30T00:00:30;32.33;;;29.47;;
19830;SDS011;10076;52.008;4.708;2024-01-30T00:02:55;33.43;;;30.43;;
19830;SDS011;10076;52.008;4.708;2024-01-30T00:05:20;31.67;;;28.70;;
19830;SDS011;10076;52.008;4.708;2024-01-30T00:07:46;32.20;;;29.40;;
19830;SDS011;10076;52.008;4.708;2024-01-30T00:10:11;32.03;;;29.23;;
19830;SDS011;10076;52.008;4.708;2024-01-30T00:12:36;32.97;;;29.83;;
19830;SDS011;10076;52.008;4.708;2024-01-30T00:15:02;34.80;;;31.40;;
19830;SDS011;10076;52.008;4.708;2024-01-30T00:17:29;33.40;;;30.13;;
19830;SDS011;10076;52.008;4.708;2024-01-30T00:19:54;32.10;;;29.17;;
19830;SDS011;10076;52.008;4.708;2024-01-30T00:22:20;32.00;;;29.13;;
19830;SDS011;10076;52.008;4.708;2024-01-30T00:24:45;31.67;;;28.83;;
19830;SDS011;10076;52.008;4.708;2024-01-30T00:27:10;32.43;;;29.50;;
19830;SDS011;10076;52.008;4.708;2024-01-30T00:29:35;33.80;;;30.30;;
19830;SDS011;10076;52.008;4.708;2024-01-30T00:32:01;32.93;;;29.83;;
19830;SDS011;10076;52.008;4.708;2024-01-30T00:34:26;32.60;;;29.60;;
19830;SDS011;10076;52.008;4.708;2024-01-30T00:36:51;31.67;;;28.70;;
19830;SDS011;10076;52.008;4.708;2024-01-30T00:39:16;33.63;;;30.23;;
19830;SDS011;10076;52.008;4.708;2024-01-30T00:41:44;33.43;;;30.23;;
19830;SDS011;10076;52.008;4.708;2024-01-30T00:44:09;33.30;;;30.17;;
19830;SDS011;10076;52.008;4.708;2024-01-30T00:46:35;33.23;;;30.23;;
19830;SDS011;10076;52.008;4.708;2024-01-30T00:49:00;33.47;;;30.53;;
19830;SDS011;10076;52.008;4.708;2024-01-30T00:51:25;34.20;;;31.10;;
19830;SDS011;10076;52.008;4.708;2024-01-30T00:53:51;33.53;;;30.63;;
19830;SDS011;10076;52.008;4.708;2024-01-30T00:56:16;33.20;;;30.37;;
19830;SDS011;10076;52.008;4.708;2024-01-30T00:58:43;34.23;;;31.13;;
19830;SDS011;10076;52.008;4.708;2024-01-30T01:01:08;33.30;;;30.17;;
19830;SDS011;10076;52.008;4.708;2024-01-30T01:03:34;33.43;;;30.37;;
19830;SDS011;10076;52.008;4.708;2024-01-30T01:05:59;35.47;;;32.17;;
19830;SDS011;10076;52.008;4.708;2024-01-30T01:08:25;33.63;;;30.73;;
19830;SDS011;10076;52.008;4.708;2024-01-30T01:10:50;32.70;;;29.60;;
19830;SDS011;10076;52.008;4.708;2024-01-30T01:13:15;33.33;;;30.13;;
19830;SDS011;10076;52.008;4.708;2024-01-30T01:15:41;33.00;;;30.13;;
19830;SDS011;10076;52.008;4.708;2024-01-30T01:18:06;33.77;;;30.53;;
19830;SDS011;10076;52.008;4.708;2024-01-30T01:20:31;33.60;;;30.60;;
19830;SDS011;10076;52.008;4.708;2024-01-30T01:22:57;31.73;;;28.83;;
19830;SDS011;10076;52.008;4.708;2024-01-30T01:25:22;34.83;;;31.37;;
19830;SDS011;10076;52.008;4.708;2024-01-30T01:27:47;36.73;;;31.50;;
19830;SDS011;10076;52.008;4.708;2024-01-30T01:30:16;31.73;;;28.83;;
19830;SDS011;10076;52.008;4.708;2024-01-30T01:32:47;33.10;;;30.00;;
19830;SDS011;10076;52.008;4.708;2024-01-30T01:35:23;32.17;;;29.03;;
19830;SDS011;10076;52.008;4.708;2024-01-30T01:37:51;32.20;;;29.30;;
19830;SDS011;10076;52.008;4.708;2024-01-30T01:40:22;32.10;;;29.30;;
19830;SDS011;10076;52.008;4.708;2024-01-30T01:42:47;34.00;;;30.73;;
19830;SDS011;10076;52.008;4.708;2024-01-30T01:45:14;33.33;;;30.37;;
19830;SDS011;10076;52.008;4.708;2024-01-30T01:47:40;33.00;;;30.10;;
19830;SDS011;10076;52.008;4.708;2024-01-30T01:50:06;33.43;;;30.40;;
19830;SDS011;10076;52.008;4.708;2024-01-30T01:52:32;32.33;;;29.53;;
19830;SDS011;10076;52.008;4.708;2024-01-30T01:54:58;33.03;;;30.13;;
19830;SDS011;10076;52.008;4.708;2024-01-30T01:57:24;32.30;;;29.17;;
19830;SDS011;10076;52.008;4.708;2024-01-30T01:59:49;33.50;;;30.40;;
19830;SDS011;10076;52.008;4.708;2024-01-30T02:02:14;34.53;;;31.37;;
19830;SDS011;10076;52.008;4.708;2024-01-30T02:04:44;35.57;;;32.17;;
19830;SDS011;10076;52.008;4.708;2024-01-30T02:07:10;33.43;;;30.37;;
19830;SDS011;10076;52.008;4.708;2024-01-30T02:09:35;33.77;;;30.77;;
19830;SDS011;10076;52.008;4.708;2024-01-30T02:12:01;34.43;;;31.33;;
19830;SDS011;10076;52.008;4.708;2024-01-30T02:14:26;34.30;;;31.20;;
19830;SDS011;10076;52.008;4.708;2024-01-30T02:16:51;34.50;;;31.50;;
19830;SDS011;10076;52.008;4.708;2024-01-30T02:19:16;36.10;;;32.87;;
19830;SDS011;10076;52.008;4.708;2024-01-30T02:21:42;32.93;;;30.17;;
19830;SDS011;10076;52.008;4.708;2024-01-30T02:24:08;35.57;;;32.47;;
19830;SDS011;10076;52.008;4.708;2024-01-30T02:26:33;35.07;;;31.97;;
19830;SDS011;10076;52.008;4.708;2024-01-30T02:28:58;33.77;;;30.57;;
19830;SDS011;10076;52.008;4.708;2024-01-30T02:31:24;35.17;;;32.07;;
19830;SDS011;10076;52.008;4.708;2024-01-30T02:33:50;35.43;;;32.03;;
19830;SDS011;10076;52.008;4.708;2024-01-30T02:36:16;34.13;;;31.33;;
19830;SDS011;10076;52.008;4.708;2024-01-30T02:38:41;33.83;;;31.03;;
19830;SDS011;10076;52.008;4.708;2024-01-30T02:41:06;32.33;;;29.43;;
19830;SDS011;10076;52.008;4.708;2024-01-30T02:43:31;35.00;;;32.03;;
19830;SDS011;10076;52.008;4.708;2024-01-30T02:45:57;35.50;;;32.30;;
19830;SDS011;10076;52.008;4.708;2024-01-30T02:48:24;34.73;;;31.70;;
19830;SDS011;10076;52.008;4.708;2024-01-30T02:50:50;35.10;;;32.07;;
19830;SDS011;10076;52.008;4.708;2024-01-30T02:53:15;36.37;;;33.37;;
19830;SDS011;10076;52.008;4.708;2024-01-30T02:55:40;36.73;;;33.73;;
19830;SDS011;10076;52.008;4.708;2024-01-30T02:58:06;34.90;;;31.73;;
19830;SDS011;10076;52.008;4.708;2024-01-30T03:00:31;32.67;;;29.90;;
19830;SDS011;10076;52.008;4.708;2024-01-30T03:02:57;31.33;;;28.50;;
19830;SDS011;10076;52.008;4.708;2024-01-30T03:05:22;33.63;;;30.63;;
19830;SDS011;10076;52.008;4.708;2024-01-30T03:07:47;33.50;;;30.60;;
19830;SDS011;10076;52.008;4.708;2024-01-30T03:10:13;33.10;;;30.20;;
19830;SDS011;10076;52.008;4.708;2024-01-30T03:12:38;34.37;;;31.57;;
19830;SDS011;10076;52.008;4.708;2024-01-30T03:15:03;34.23;;;31.13;;
19830;SDS011;10076;52.008;4.708;2024-01-30T03:17:29;37.47;;;34.07;;
19830;SDS011;10076;52.008;4.708;2024-01-30T03:19:54;34.47;;;31.67;;
19830;SDS011;10076;52.008;4.708;2024-01-30T03:22:19;33.53;;;30.53;;
19830;SDS011;10076;52.008;4.708;2024-01-30T03:24:45;34.00;;;31.10;;
19830;SDS011;10076;52.008;4.708;2024-01-30T03:27:10;33.23;;;30.50;;
19830;SDS011;10076;52.008;4.708;2024-01-30T03:29:35;34.83;;;32.00;;
19830;SDS011;10076;52.008;4.708;2024-01-30T03:32:01;33.40;;;30.57;;
19830;SDS011;10076;52.008;4.708;2024-01-30T03:34:26;33.37;;;30.47;;
19830;SDS011;10076;52.008;4.708;2024-01-30T03:36:51;33.07;;;30.23;;
19830;SDS011;10076;52.008;4.708;2024-01-30T03:39:16;34.80;;;31.70;;
19830;SDS011;10076;52.008;4.708;2024-01-30T03:41:42;31.97;;;29.00;;
19830;SDS011;10076;52.008;4.708;2024-01-30T03:44:08;33.67;;;30.67;;
19830;SDS011;10076;52.008;4.708;2024-01-30T03:46:33;33.03;;;30.13;;
19830;SDS011;10076;52.008;4.708;2024-01-30T03:48:59;33.73;;;30.83;;
19830;SDS011;10076;52.008;4.708;2024-01-30T03:51:24;31.87;;;29.10;;
19830;SDS011;10076;52.008;4.708;2024-01-30T03:53:49;33.10;;;30.13;;
19830;SDS011;10076;52.008;4.708;2024-01-30T03:56:15;31.97;;;29.07;;
19830;SDS011;10076;52.008;4.708;2024-01-30T03:58:40;32.03;;;29.23;;
19830;SDS011;10076;52.008;4.708;2024-01-30T04:01:06;32.63;;;29.63;;
19830;SDS011;10076;52.008;4.708;2024-01-30T04:03:31;33.20;;;30.30;;
19830;SDS011;10076;52.008;4.708;2024-01-30T04:05:56;31.97;;;29.27;;
19830;SDS011;10076;52.008;4.708;2024-01-30T04:08:22;31.23;;;28.53;;
19830;SDS011;10076;52.008;4.708;2024-01-30T04:10:47;32.60;;;29.60;;
19830;SDS011;10076;52.008;4.708;2024-01-30T04:13:13;32.67;;;28.97;;
19830;SDS011;10076;52.008;4.708;2024-01-30T04:15:38;31.80;;;29.10;;
19830;SDS011;10076;52.008;4.708;2024-01-30T04:18:04;31.70;;;28.87;;
19830;SDS011;10076;52.008;4.708;2024-01-30T04:20:29;32.97;;;29.97;;
19830;SDS011;10076;52.008;4.708;2024-01-30T04:22:55;30.90;;;28.30;;
19830;SDS011;10076;52.008;4.708;2024-01-30T04:25:20;33.03;;;30.13;;
19830;SDS011;10076;52.008;4.708;2024-01-30T04:27:46;33.53;;;30.43;;
19830;SDS011;10076;52.008;4.708;2024-01-30T04:30:11;31.97;;;29.10;;
19830;SDS011;10076;52.008;4.708;2024-01-30T04:32:36;34.90;;;31.83;;
19830;SDS011;10076;52.008;4.708;2024-01-30T04:35:02;33.53;;;30.63;;
19830;SDS011;10076;52.008;4.708;2024-01-30T04:37:28;35.43;;;32.40;;
19830;SDS011;10076;52.008;4.708;2024-01-30T04:39:53;33.53;;;30.67;;
19830;SDS011;10076;52.008;4.708;2024-01-30T04:42:18;34.63;;;31.63;;
19830;SDS011;10076;52.008;4.708;2024-01-30T04:44:44;33.57;;;30.40;;
19830;SDS011;10076;52.008;4.708;2024-01-30T04:47:09;33.97;;;30.97;;
19830;SDS011;10076;52.008;4.708;2024-01-30T04:49:38;32.23;;;29.43;;
19830;SDS011;10076;52.008;4.708;2024-01-30T04:52:04;31.80;;;28.93;;
19830;SDS011;10076;52.008;4.708;2024-01-30T04:54:30;32.87;;;29.97;;
19830;SDS011;10076;52.008;4.708;2024-01-30T04:56:56;32.87;;;30.07;;
19830;SDS011;10076;52.008;4.708;2024-01-30T04:59:21;34.97;;;31.77;;
19830;SDS011;10076;52.008;4.708;2024-01-30T05:01:46;34.00;;;30.87;;
19830;SDS011;10076;52.008;4.708;2024-01-30T05:04:11;34.63;;;31.77;;
19830;SDS011;10076;52.008;4.708;2024-01-30T05:06:37;32.40;;;29.53;;
19830;SDS011;10076;52.008;4.708;2024-01-30T05:09:02;35.30;;;32.20;;
19830;SDS011;10076;52.008;4.708;2024-01-30T05:11:29;35.43;;;32.20;;
19830;SDS011;10076;52.008;4.708;2024-01-30T05:13:55;33.67;;;30.57;;
19830;SDS011;10076;52.008;4.708;2024-01-30T05:16:20;33.43;;;30.40;;
19830;SDS011;10076;52.008;4.708;2024-01-30T05:18:45;33.17;;;30.17;;
19830;SDS011;10076;52.008;4.708;2024-01-30T05:21:10;34.10;;;31.23;;
19830;SDS011;10076;52.008;4.708;2024-01-30T05:23:36;33.53;;;30.33;;
19830;SDS011;10076;52.008;4.708;2024-01-30T05:26:01;33.07;;;30.17;;
19830;SDS011;10076;52.008;4.708;2024-01-30T05:28:27;32.77;;;29.97;;
19830;SDS011;10076;52.008;4.708;2024-01-30T05:30:54;33.97;;;30.73;;
19830;SDS011;10076;52.008;4.708;2024-01-30T05:33:20;31.80;;;28.97;;
19830;SDS011;10076;52.008;4.708;2024-01-30T05:35:45;33.50;;;30.37;;
19830;SDS011;10076;52.008;4.708;2024-01-30T05:38:11;33.83;;;30.93;;
19830;SDS011;10076;52.008;4.708;2024-01-30T05:40:36;33.80;;;31.00;;
19830;SDS011;10076;52.008;4.708;2024-01-30T05:43:01;35.27;;;32.17;;
19830;SDS011;10076;52.008;4.708;2024-01-30T05:45:27;32.63;;;29.93;;
19830;SDS011;10076;52.008;4.708;2024-01-30T05:47:53;33.83;;;30.83;;
19830;SDS011;10076;52.008;4.708;2024-01-30T05:50:19;33.00;;;30.00;;
19830;SDS011;10076;52.008;4.708;2024-01-30T05:52:44;31.03;;;28.13;;
19830;SDS011;10076;52.008;4.708;2024-01-30T05:55:10;32.53;;;29.67;;
19830;SDS011;10076;52.008;4.708;2024-01-30T05:57:36;34.70;;;31.17;;
19830;SDS011;10076;52.008;4.708;2024-01-30T06:00:02;32.20;;;29.20;;
19830;SDS011;10076;52.008;4.708;2024-01-30T06:02:28;34.53;;;31.53;;
19830;SDS011;10076;52.008;4.708;2024-01-30T06:04:54;34.90;;;32.00;;
19830;SDS011;10076;52.008;4.708;2024-01-30T06:07:19;36.77;;;33.57;;
19830;SDS011;10076;52.008;4.708;2024-01-30T06:09:44;35.20;;;32.40;;
19830;SDS011;10076;52.008;4.708;2024-01-30T06:12:11;35.17;;;32.17;;
19830;SDS011;10076;52.008;4.708;2024-01-30T06:14:37;36.97;;;34.17;;
19830;SDS011;10076;52.008;4.708;2024-01-30T06:17:02;38.27;;;34.93;;
19830;SDS011;10076;52.008;4.708;2024-01-30T06:19:28;40.47;;;37.27;;
19830;SDS011;10076;52.008;4.708;2024-01-30T06:21:53;35.23;;;32.23;;
19830;SDS011;10076;52.008;4.708;2024-01-30T06:24:18;36.33;;;33.27;;
19830;SDS011;10076;52.008;4.708;2024-01-30T06:26:44;37.13;;;34.23;;
19830;SDS011;10076;52.008;4.708;2024-01-30T06:29:09;35.53;;;32.73;;
19830;SDS011;10076;52.008;4.708;2024-01-30T06:31:39;36.87;;;33.67;;
19830;SDS011;10076;52.008;4.708;2024-01-30T06:34:08;39.17;;;36.13;;
19830;SDS011;10076;52.008;4.708;2024-01-30T06:36:34;36.93;;;33.83;;
19830;SDS011;10076;52.008;4.708;2024-01-30T06:38:59;37.93;;;35.03;;
19830;SDS011;10076;52.008;4.708;2024-01-30T06:41:24;35.77;;;32.97;;
19830;SDS011;10076;52.008;4.708;2024-01-30T06:43:50;34.00;;;31.17;;
19830;SDS011;10076;52.008;4.708;2024-01-30T06:46:15;40.70;;;37.23;;
19830;SDS011;10076;52.008;4.708;2024-01-30T06:48:40;41.77;;;37.93;;
19830;SDS011;10076;52.008;4.708;2024-01-30T06:51:06;39.33;;;36.13;;
19830;SDS011;10076;52.008;4.708;2024-01-30T06:53:31;40.70;;;37.40;;
19830;SDS011;10076;52.008;4.708;2024-01-30T06:55:57;40.93;;;37.43;;
19830;SDS011;10076;52.008;4.708;2024-01-30T06:58:22;40.63;;;37.40;;
19830;SDS011;10076;52.008;4.708;2024-01-30T07:00:47;42.40;;;38.90;;
19830;SDS011;10076;52.008;4.708;2024-01-30T07:03:13;42.60;;;38.90;;
19830;SDS011;10076;52.008;4.708;2024-01-30T07:05:38;38.90;;;35.73;;
19830;SDS011;10076;52.008;4.708;2024-01-30T07:08:03;40.27;;;36.97;;
19830;SDS011;10076;52.008;4.708;2024-01-30T07:10:29;39.40;;;35.93;;
19830;SDS011;10076;52.008;4.708;2024-01-30T07:12:56;39.47;;;35.40;;
19830;SDS011;10076;52.008;4.708;2024-01-30T07:15:21;41.90;;;38.60;;
19830;SDS011;10076;52.008;4.708;2024-01-30T07:17:47;41.23;;;38.03;;
19830;SDS011;10076;52.008;4.708;2024-01-30T07:20:12;40.43;;;37.10;;
19830;SDS011;10076;52.008;4.708;2024-01-30T07:22:38;40.57;;;37.10;;
19830;SDS011;10076;52.008;4.708;2024-01-30T07:25:03;41.13;;;37.93;;
19830;SDS011;10076;52.008;4.708;2024-01-30T07:27:29;42.17;;;38.87;;
19830;SDS011;10076;52.008;4.708;2024-01-30T07:29:54;40.47;;;37.23;;
19830;SDS011;10076;52.008;4.708;2024-01-30T07:32:19;40.10;;;37.07;;
19830;SDS011;10076;52.008;4.708;2024-01-30T07:34:45;40.07;;;37.00;;
19830;SDS011;10076;52.008;4.708;2024-01-30T07:37:10;38.90;;;35.90;;
19830;SDS011;10076;52.008;4.708;2024-01-30T07:39:37;35.27;;;32.27;;
19830;SDS011;10076;52.008;4.708;2024-01-30T07:42:03;37.00;;;33.57;;
19830;SDS011;10076;52.008;4.708;2024-01-30T07:44:28;39.77;;;36.47;;
19830;SDS011;10076;52.008;4.708;2024-01-30T07:46:54;37.63;;;34.37;;
19830;SDS011;10076;52.008;4.708;2024-01-30T07:49:19;37.50;;;34.40;;
19830;SDS011;10076;52.008;4.708;2024-01-30T07:51:45;37.27;;;34.13;;
19830;SDS011;10076;52.008;4.708;2024-01-30T07:54:13;38.70;;;35.37;;
19830;SDS011;10076;52.008;4.708;2024-01-30T07:56:39;37.07;;;33.97;;
19830;SDS011;10076;52.008;4.708;2024-01-30T07:59:04;37.13;;;33.80;;
19830;SDS011;10076;52.008;4.708;2024-01-30T08:01:29;36.10;;;33.00;;
19830;SDS011;10076;52.008;4.708;2024-01-30T08:03:55;33.97;;;30.97;;
19830;SDS011;10076;52.008;4.708;2024-01-30T08:06:20;34.27;;;31.27;;
19830;SDS011;10076;52.008;4.708;2024-01-30T08:08:45;33.10;;;30.20;;
19830;SDS011;10076;52.008;4.708;2024-01-30T08:11:11;36.37;;;32.97;;
19830;SDS011;10076;52.008;4.708;2024-01-30T08:13:37;35.33;;;32.33;;
19830;SDS011;10076;52.008;4.708;2024-01-30T08:16:02;36.27;;;32.77;;
19830;SDS011;10076;52.008;4.708;2024-01-30T08:18:28;34.10;;;31.17;;
19830;SDS011;10076;52.008;4.708;2024-01-30T08:20:53;34.87;;;31.70;;
19830;SDS011;10076;52.008;4.708;2024-01-30T08:23:18;33.53;;;30.43;;
19830;SDS011;10076;52.008;4.708;2024-01-30T08:25:43;35.87;;;32.67;;
19830;SDS011;10076;52.008;4.708;2024-01-30T08:28:09;35.97;;;33.07;;
19830;SDS011;10076;52.008;4.708;2024-01-30T08:30:34;37.00;;;33.70;;
19830;SDS011;10076;52.008;4.708;2024-01-30T08:33:00;34.37;;;31.43;;
19830;SDS011;10076;52.008;4.708;2024-01-30T08:35:26;36.87;;;33.67;;
19830;SDS011;10076;52.008;4.708;2024-01-30T08:37:51;34.57;;;31.63;;
19830;SDS011;10076;52.008;4.708;2024-01-30T08:40:16;35.20;;;32.20;;
19830;SDS011;10076;52.008;4.708;2024-01-30T08:42:42;35.63;;;32.33;;
19830;SDS011;10076;52.008;4.708;2024-01-30T08:45:07;36.30;;;33.17;;
19830;SDS011;10076;52.008;4.708;2024-01-30T08:47:34;34.80;;;31.67;;
19830;SDS011;10076;52.008;4.708;2024-01-30T08:49:59;34.80;;;31.67;;
19830;SDS011;10076;52.008;4.708;2024-01-30T08:52:24;31.40;;;28.50;;
19830;SDS011;10076;52.008;4.708;2024-01-30T08:54:50;32.57;;;29.80;;
19830;SDS011;10076;52.008;4.708;2024-01-30T08:57:15;31.00;;;28.40;;
19830;SDS011;10076;52.008;4.708;2024-01-30T08:59:40;30.97;;;28.00;;
19830;SDS011;10076;52.008;4.708;2024-01-30T09:02:06;31.20;;;28.40;;
19830;SDS011;10076;52.008;4.708;2024-01-30T09:04:31;32.17;;;28.97;;
19830;SDS011;10076;52.008;4.708;2024-01-30T09:06:56;32.13;;;28.97;;
19830;SDS011;10076;52.008;4.708;2024-01-30T09:09:22;31.57;;;28.87;;
19830;SDS011;10076;52.008;4.708;2024-01-30T09:11:47;30.97;;;28.17;;
19830;SDS011;10076;52.008;4.708;2024-01-30T09:14:12;31.13;;;28.13;;
19830;SDS011;10076;52.008;4.708;2024-01-30T09:16:38;32.57;;;29.40;;
19830;SDS011;10076;52.008;4.708;2024-01-30T09:19:03;31.63;;;28.83;;
19830;SDS011;10076;52.008;4.708;2024-01-30T09:21:29;31.90;;;29.07;;
19830;SDS011;10076;52.008;4.708;2024-01-30T09:23:54;30.50;;;27.63;;
19830;SDS011;10076;52.008;4.708;2024-01-30T09:26:20;31.77;;;29.03;;
19830;SDS011;10076;52.008;4.708;2024-01-30T09:28:45;30.23;;;27.47;;
19830;SDS011;10076;52.008;4.708;2024-01-30T09:31:11;29.67;;;26.97;;
19830;SDS011;10076;52.008;4.708;2024-01-30T09:33:37;29.63;;;27.13;;
19830;SDS011;10076;52.008;4.708;2024-01-30T09:36:03;29.43;;;26.83;;
19830;SDS011;10076;52.008;4.708;2024-01-30T09:38:30;30.63;;;27.93;;
19830;SDS011;10076;52.008;4.708;2024-01-30T09:40:55;31.00;;;28.07;;
19830;SDS011;10076;52.008;4.708;2024-01-30T09:43:23;29.33;;;26.73;;
19830;SDS011;10076;52.008;4.708;2024-01-30T09:45:50;31.63;;;28.73;;
19830;SDS011;10076;52.008;4.708;2024-01-30T09:48:16;31.23;;;28.53;;
19830;SDS011;10076;52.008;4.708;2024-01-30T09:50:41;29.27;;;26.63;;
19830;SDS011;10076;52.008;4.708;2024-01-30T09:53:07;32.03;;;29.13;;
19830;SDS011;10076;52.008;4.708;2024-01-30T09:55:34;31.70;;;28.50;;
19830;SDS011;10076;52.008;4.708;2024-01-30T09:58:01;32.40;;;29.50;;
19830;SDS011;10076;52.008;4.708;2024-01-30T10:00:26;32.73;;;29.83;;
19830;SDS011;10076;52.008;4.708;2024-01-30T10:02:52;31.57;;;28.77;;
19830;SDS011;10076;52.008;4.708;2024-01-30T10:05:18;33.83;;;30.87;;
19830;SDS011;10076;52.008;4.708;2024-01-30T10:07:52;31.93;;;29.17;;
19830;SDS011;10076;52.008;4.708;2024-01-30T10:10:18;32.40;;;29.73;;
19830;SDS011;10076;52.008;4.708;2024-01-30T10:12:43;31.57;;;29.03;;
19830;SDS011;10076;52.008;4.708;2024-01-30T10:15:09;31.40;;;28.90;;
19830;SDS011;10076;52.008;4.708;2024-01-30T10:17:37;30.30;;;28.00;;
19830;SDS011;10076;52.008;4.708;2024-01-30T10:20:04;31.13;;;28.63;;
19830;SDS011;10076;52.008;4.708;2024-01-30T10:22:30;30.93;;;28.33;;
19830;SDS011;10076;52.008;4.708;2024-01-30T10:24:55;31.60;;;29.03;;
19830;SDS011;10076;52.008;4.708;2024-01-30T10:27:25;29.60;;;27.17;;
19830;SDS011;10076;52.008;4.708;2024-01-30T10:29:52;31.67;;;28.97;;
19830;SDS011;10076;52.008;4.708;2024-01-30T10:32:17;31.63;;;28.93;;
19830;SDS011;10076;52.008;4.708;2024-01-30T10:34:42;32.20;;;29.60;;
19830;SDS011;10076;52.008;4.708;2024-01-30T10:37:08;30.27;;;27.87;;
19830;SDS011;10076;52.008;4.708;2024-01-30T10:39:40;31.23;;;28.53;;
19830;SDS011;10076;52.008;4.708;2024-01-30T10:42:09;32.23;;;29.30;;
19830;SDS011;10076;52.008;4.708;2024-01-30T10:44:39;28.20;;;26.00;;
19830;SDS011;10076;52.008;4.708;2024-01-30T10:47:13;29.53;;;27.13;;
19830;SDS011;10076;52.008;4.708;2024-01-30T10:49:43;31.73;;;29.23;;
19830;SDS011;10076;52.008;4.708;2024-01-30T10:52:11;29.67;;;27.30;;
19830;SDS011;10076;52.008;4.708;2024-01-30T10:54:38;30.63;;;28.23;;
19830;SDS011;10076;52.008;4.708;2024-01-30T10:57:05;30.17;;;27.73;;
19830;SDS011;10076;52.008;4.708;2024-01-30T10:59:30;29.50;;;27.20;;
19830;SDS011;10076;52.008;4.708;2024-01-30T11:01:57;29.10;;;26.90;;
19830;SDS011;10076;52.008;4.708;2024-01-30T11:04:24;30.83;;;28.43;;
19830;SDS011;10076;52.008;4.708;2024-01-30T11:06:50;29.47;;;27.17;;
19830;SDS011;10076;52.008;4.708;2024-01-30T11:09:17;26.63;;;24.43;;
19830;SDS011;10076;52.008;4.708;2024-01-30T11:14:24;28.13;;;25.93;;
19830;SDS011;10076;52.008;4.708;2024-01-30T11:16:51;29.10;;;26.83;;
19830;SDS011;10076;52.008;4.708;2024-01-30T11:19:22;29.67;;;27.37;;
19830;SDS011;10076;52.008;4.708;2024-01-30T11:21:50;28.73;;;26.43;;
19830;SDS011;10076;52.008;4.708;2024-01-30T11:24:19;30.00;;;27.70;;
19830;SDS011;10076;52.008;4.708;2024-01-30T11:26:57;29.60;;;27.30;;
19830;SDS011;10076;52.008;4.708;2024-01-30T11:29:29;29.73;;;27.43;;
19830;SDS011;10076;52.008;4.708;2024-01-30T11:31:55;28.60;;;26.40;;
19830;SDS011;10076;52.008;4.708;2024-01-30T11:34:21;28.47;;;26.27;;
19830;SDS011;10076;52.008;4.708;2024-01-30T11:36:56;28.30;;;26.10;;
19830;SDS011;10076;52.008;4.708;2024-01-30T11:39:27;29.43;;;27.03;;
19830;SDS011;10076;52.008;4.708;2024-01-30T11:41:54;29.97;;;27.30;;
19830;SDS011;10076;52.008;4.708;2024-01-30T11:44:20;28.63;;;26.43;;
19830;SDS011;10076;52.008;4.708;2024-01-30T11:46:53;29.57;;;27.27;;
19830;SDS011;10076;52.008;4.708;2024-01-30T11:49:18;30.27;;;27.77;;
19830;SDS011;10076;52.008;4.708;2024-01-30T11:51:46;27.97;;;25.83;;
19830;SDS011;10076;52.008;4.708;2024-01-30T11:54:14;28.50;;;26.30;;
19830;SDS011;10076;52.008;4.708;2024-01-30T11:56:40;27.67;;;25.47;;
19830;SDS011;10076;52.008;4.708;2024-01-30T11:59:05;28.63;;;26.43;;
19830;SDS011;10076;52.008;4.708;2024-01-30T12:01:31;28.90;;;26.70;;
19830;SDS011;10076;52.008;4.708;2024-01-30T12:03:58;28.07;;;25.97;;
19830;SDS011;10076;52.008;4.708;2024-01-30T12:06:24;28.70;;;26.57;;
19830;SDS011;10076;52.008;4.708;2024-01-30T12:08:59;27.77;;;25.67;;
19830;SDS011;10076;52.008;4.708;2024-01-30T12:11:28;30.33;;;27.30;;
19830;SDS011;10076;52.008;4.708;2024-01-30T12:13:55;31.03;;;28.47;;
19830;SDS011;10076;52.008;4.708;2024-01-30T12:16:21;28.63;;;26.43;;
19830;SDS011;10076;52.008;4.708;2024-01-30T12:18:46;29.03;;;26.83;;
19830;SDS011;10076;52.008;4.708;2024-01-30T12:21:12;29.67;;;27.37;;
19830;SDS011;10076;52.008;4.708;2024-01-30T12:23:41;29.03;;;26.83;;
19830;SDS011;10076;52.008;4.708;2024-01-30T12:26:06;28.77;;;26.43;;
19830;SDS011;10076;52.008;4.708;2024-01-30T12:28:32;29.07;;;26.47;;
19830;SDS011;10076;52.008;4.708;2024-01-30T12:31:01;29.30;;;27.00;;
19830;SDS011;10076;52.008;4.708;2024-01-30T12:33:28;29.37;;;26.97;;
19830;SDS011;10076;52.008;4.708;2024-01-30T12:35:54;28.17;;;25.87;;
19830;SDS011;10076;52.008;4.708;2024-01-30T12:38:19;28.60;;;26.30;;
19830;SDS011;10076;52.008;4.708;2024-01-30T12:40:44;28.97;;;26.60;;
19830;SDS011;10076;52.008;4.708;2024-01-30T12:43:10;28.53;;;26.13;;
19830;SDS011;10076;52.008;4.708;2024-01-30T12:45:36;28.47;;;26.13;;
19830;SDS011;10076;52.008;4.708;2024-01-30T12:48:01;30.70;;;28.30;;
19830;SDS011;10076;52.008;4.708;2024-01-30T12:50:27;31.13;;;28.70;;
19830;SDS011;10076;52.008;4.708;2024-01-30T12:52:52;30.57;;;28.27;;
19830;SDS011;10076;52.008;4.708;2024-01-30T12:55:18;28.17;;;26.07;;
19830;SDS011;10076;52.008;4.708;2024-01-30T12:57:43;29.20;;;26.90;;
19830;SDS011;10076;52.008;4.708;2024-01-30T13:00:08;28.57;;;26.07;;
19830;SDS011;10076;52.008;4.708;2024-01-30T13:02:34;27.27;;;25.17;;
19830;SDS011;10076;52.008;4.708;2024-01-30T13:05:04;27.87;;;25.67;;
19830;SDS011;10076;52.008;4.708;2024-01-30T13:07:30;27.73;;;25.53;;
19830;SDS011;10076;52.008;4.708;2024-01-30T13:09:56;30.73;;;28.17;;
19830;SDS011;10076;52.008;4.708;2024-01-30T13:12:27;29.33;;;27.07;;
19830;SDS011;10076;52.008;4.708;2024-01-30T13:14:53;28.33;;;26.13;;
19830;SDS011;10076;52.008;4.708;2024-01-30T13:17:18;31.50;;;28.60;;
19830;SDS011;10076;52.008;4.708;2024-01-30T13:19:44;28.47;;;26.00;;
19830;SDS011;10076;52.008;4.708;2024-01-30T13:22:09;28.00;;;25.70;;
19830;SDS011;10076;52.008;4.708;2024-01-30T13:24:34;29.83;;;27.27;;
19830;SDS011;10076;52.008;4.708;2024-01-30T13:27:00;29.67;;;27.37;;
19830;SDS011;10076;52.008;4.708;2024-01-30T13:29:25;28.97;;;25.77;;
19830;SDS011;10076;52.008;4.708;2024-01-30T13:31:51;29.37;;;26.97;;
19830;SDS011;10076;52.008;4.708;2024-01-30T13:34:16;29.13;;;26.80;;
19830;SDS011;10076;52.008;4.708;2024-01-30T13:36:42;28.80;;;26.47;;
19830;SDS011;10076;52.008;4.708;2024-01-30T13:39:08;31.00;;;28.30;;
19830;SDS011;10076;52.008;4.708;2024-01-30T13:41:35;32.03;;;29.47;;
19830;SDS011;10076;52.008;4.708;2024-01-30T13:44:01;31.27;;;28.83;;
19830;SDS011;10076;52.008;4.708;2024-01-30T13:46:28;31.87;;;29.40;;
19830;SDS011;10076;52.008;4.708;2024-01-30T13:48:54;28.33;;;26.03;;
19830;SDS011;10076;52.008;4.708;2024-01-30T13:51:19;27.60;;;25.40;;
19830;SDS011;10076;52.008;4.708;2024-01-30T13:53:44;25.03;;;23.13;;
19830;SDS011;10076;52.008;4.708;2024-01-30T13:56:10;25.20;;;23.20;;
19830;SDS011;10076;52.008;4.708;2024-01-30T13:58:35;25.37;;;23.37;;
19830;SDS011;10076;52.008;4.708;2024-01-30T14:01:01;25.13;;;23.13;;
19830;SDS011;10076;52.008;4.708;2024-01-30T14:03:27;26.13;;;24.00;;
19830;SDS011;10076;52.008;4.708;2024-01-30T14:05:52;25.10;;;23.10;;
19830;SDS011;10076;52.008;4.708;2024-01-30T14:08:18;26.27;;;24.07;;
19830;SDS011;10076;52.008;4.708;2024-01-30T14:10:43;25.93;;;23.90;;
19830;SDS011;10076;52.008;4.708;2024-01-30T14:13:09;26.53;;;24.43;;
19830;SDS011;10076;52.008;4.708;2024-01-30T14:15:34;27.20;;;24.90;;